Time;durP1;ratioP1;P1;durP2;ratioP2;P2;SDS_P1;SDS_P2;PMS_P1;PMS_P2;Temp;Humidity;BMP_temperature;BMP_pressure;BME280_temperature;BME280_humidity;BME280_pressure;Samples;Min_cycle;Max_cycle;Signal;HPM_P1;HPM_P2
2021/06/16 05:28:26;;;;;;;12.37;5.12;;;;;;;16.29;76.04;98127.94;1871535;76;22689;-65
2021/06/16 05:30:53;;;;;;;6.20;4.47;;;;;;;16.30;75.92;98127.60;1828242;77;21399;-65
2021/06/16 05:33:21;;;;;;;8.03;4.40;;;;;;;16.41;75.93;98124.00;1827760;78;21247;-65
2021/06/16 05:35:47;;;;;;;10.08;4.47;;;;;;;16.52;75.77;98127.95;1827779;78;20911;-66
2021/06/16 05:38:14;;;;;;;13.05;4.70;;;;;;;16.67;75.79;98128.77;1828245;78;20832;-65
2021/06/16 05:40:42;;;;;;;10.75;5.72;;;;;;;16.84;75.78;98131.94;1827827;78;20959;-65
2021/06/16 05:43:09;;;;;;;10.75;4.87;;;;;;;17.00;75.54;98128.30;1827873;78;20943;-65
2021/06/16 05:45:35;;;;;;;7.42;4.87;;;;;;;17.18;75.19;98122.23;1828055;78;21114;-65
2021/06/16 05:48:03;;;;;;;10.43;4.92;;;;;;;17.35;74.50;98122.11;1827767;78;20876;-66
2021/06/16 05:50:30;;;;;;;6.17;4.62;;;;;;;17.51;74.16;98124.99;1827939;78;21426;-65
2021/06/16 05:52:57;;;;;;;8.50;5.15;;;;;;;17.67;74.20;98129.49;1827809;78;20888;-66
2021/06/16 05:55:24;;;;;;;7.90;4.78;;;;;;;17.83;73.55;98122.11;1827841;78;21438;-67
2021/06/16 05:57:51;;;;;;;9.48;4.97;;;;;;;17.96;72.68;98122.37;1827684;78;21176;-65
2021/06/16 06:00:20;;;;;;;6.90;4.50;;;;;;;18.08;71.88;98119.69;1825456;77;20943;-65
2021/06/16 06:02:47;;;;;;;9.35;4.17;;;;;;;18.19;71.60;98112.70;1817699;78;20958;-63
2021/06/16 06:05:15;;;;;;;5.92;4.30;;;;;;;18.30;71.27;98113.88;1813727;77;20872;-62
2021/06/16 06:07:42;;;;;;;7.60;4.05;;;;;;;18.43;70.80;98116.25;1820751;77;20955;-65
2021/06/16 06:10:10;;;;;;;7.80;4.72;;;;;;;18.55;70.22;98120.92;1827040;78;21257;-63
2021/06/16 06:12:36;;;;;;;7.10;4.40;;;;;;;18.60;69.83;98123.41;1827416;78;21424;-65
2021/06/16 06:15:06;;;;;;;6.55;4.50;;;;;;;18.62;69.50;98130.64;1826849;78;20960;-64
2021/06/16 06:17:35;;;;;;;6.70;4.47;;;;;;;18.59;69.30;98127.80;1822555;77;20962;-67
2021/06/16 06:20:03;;;;;;;6.58;4.87;;;;;;;18.54;69.50;98130.73;1810995;78;21084;-65
2021/06/16 06:22:30;;;;;;;9.90;4.50;;;;;;;18.42;69.68;98132.28;1828065;78;21525;-65
2021/06/16 06:24:58;;;;;;;7.15;4.80;;;;;;;18.34;70.09;98137.26;1820905;78;20982;-66
2021/06/16 06:27:25;;;;;;;7.67;4.62;;;;;;;18.28;70.83;98140.50;1838865;76;21366;-63
2021/06/16 06:29:52;;;;;;;8.75;4.50;;;;;;;18.17;70.75;98136.09;1813636;78;20931;-72
2021/06/16 06:32:19;;;;;;;7.35;5.42;;;;;;;18.11;71.09;98138.77;1828002;78;20923;-67
2021/06/16 06:34:46;;;;;;;10.05;4.80;;;;;;;18.09;71.31;98132.13;1829418;78;21036;-65
2021/06/16 06:37:13;;;;;;;6.20;4.97;;;;;;;18.11;71.79;98132.58;1842307;78;20828;-64
2021/06/16 06:39:41;;;;;;;7.50;5.40;;;;;;;18.18;71.79;98128.17;1841698;78;20963;-64
2021/06/16 06:42:09;;;;;;;7.90;4.72;;;;;;;18.25;71.43;98133.06;1841702;78;20991;-64
2021/06/16 06:44:36;;;;;;;10.65;4.92;;;;;;;18.31;71.17;98133.06;1841780;78;21430;-64
2021/06/16 06:47:03;;;;;;;6.87;4.90;;;;;;;18.35;71.10;98135.31;1829727;78;21100;-67
2021/06/16 06:49:31;;;;;;;7.97;4.95;;;;;;;18.41;70.80;98136.70;1825819;78;21076;-67
2021/06/16 06:51:59;;;;;;;7.80;5.12;;;;;;;18.46;70.71;98136.52;1826057;78;21042;-63
2021/06/16 06:54:25;;;;;;;9.18;5.20;;;;;;;18.51;70.73;98137.65;1826342;78;21647;-66
2021/06/16 06:56:53;;;;;;;9.93;5.30;;;;;;;18.58;69.98;98134.37;1816163;78;21054;-62
2021/06/16 06:59:20;;;;;;;8.75;4.67;;;;;;;18.57;70.01;98136.28;1820081;78;21513;-62
2021/06/16 07:01:48;;;;;;;11.70;5.03;;;;;;;18.60;70.12;98130.19;1827226;78;20907;-63
2021/06/16 07:04:14;;;;;;;11.45;5.28;;;;;;;18.67;70.32;98133.13;1827745;78;20892;-62
2021/06/16 07:06:41;;;;;;;8.15;5.05;;;;;;;18.81;70.11;98136.30;1827229;78;20998;-64
2021/06/16 07:09:10;;;;;;;9.03;5.08;;;;;;;18.97;69.75;98138.54;1824831;77;21446;-66
2021/06/16 07:11:37;;;;;;;7.03;4.90;;;;;;;19.13;69.42;98140.77;1827310;78;21074;-65
2021/06/16 07:14:07;;;;;;;7.87;4.62;;;;;;;19.30;69.00;98146.52;1827386;78;21351;-65
2021/06/16 07:16:35;;;;;;;10.05;5.60;;;;;;;19.47;68.67;98140.05;1827241;78;20998;-66
2021/06/16 07:19:11;;;;;;;8.13;4.92;;;;;;;19.59;67.96;98135.95;1827331;78;20943;-64
2021/06/16 07:21:38;;;;;;;7.03;4.42;;;;;;;19.68;67.69;98140.66;1819807;78;20947;-65
2021/06/16 07:24:09;;;;;;;5.92;4.08;;;;;;;19.72;67.46;98140.19;1814277;78;21099;-67
2021/06/16 07:26:43;;;;;;;7.05;4.35;;;;;;;19.77;67.08;98142.09;1827376;78;21383;-63
2021/06/16 07:29:09;;;;;;;8.90;4.83;;;;;;;19.83;67.03;98138.58;1812771;78;20925;-65
2021/06/16 07:31:37;;;;;;;7.95;4.80;;;;;;;19.92;67.18;98138.41;1789518;79;20973;-64
2021/06/16 07:34:04;;;;;;;7.10;4.83;;;;;;;20.06;66.83;98146.95;1806932;78;20876;-70
2021/06/16 07:36:33;;;;;;;7.00;4.37;;;;;;;20.18;66.50;98152.32;1821891;78;21403;-67
2021/06/16 07:39:07;;;;;;;7.95;4.30;;;;;;;20.28;66.21;98143.09;1821250;78;21482;-65
2021/06/16 07:41:39;;;;;;;8.33;4.67;;;;;;;20.39;66.12;98149.63;1821710;78;20954;-65
2021/06/16 07:44:07;;;;;;;6.95;4.03;;;;;;;20.48;65.45;98158.16;1821787;78;20912;-64
2021/06/16 07:46:33;;;;;;;14.35;4.42;;;;;;;20.51;66.06;98153.39;1822034;77;20877;-67
2021/06/16 07:49:01;;;;;;;12.07;4.67;;;;;;;20.54;65.63;98158.14;1821710;78;21101;-65
2021/06/16 07:51:28;;;;;;;12.55;4.33;;;;;;;20.55;65.65;98152.90;1821935;77;21761;-63
2021/06/16 07:53:56;;;;;;;8.05;4.60;;;;;;;20.55;65.75;98155.62;1821871;77;20889;-63
2021/06/16 07:56:24;;;;;;;8.43;4.10;;;;;;;20.61;65.68;98157.72;1822073;78;21450;-65
2021/06/16 07:58:51;;;;;;;10.68;4.58;;;;;;;20.71;65.23;98152.32;1821810;77;20947;-64
2021/06/16 08:01:19;;;;;;;8.55;4.28;;;;;;;20.84;65.68;98153.82;1821942;77;21122;-64
2021/06/16 08:03:46;;;;;;;16.70;4.17;;;;;;;20.99;64.98;98154.35;1821767;77;20864;-64
2021/06/16 08:06:13;;;;;;;7.70;4.12;;;;;;;21.08;64.85;98157.13;1821733;78;20944;-65
2021/06/16 08:08:40;;;;;;;8.80;3.67;;;;;;;21.22;64.28;98164.83;1821621;77;20998;-65
2021/06/16 08:11:07;;;;;;;7.87;3.83;;;;;;;21.33;62.64;98168.60;1814836;78;21046;-62
2021/06/16 08:13:34;;;;;;;10.65;4.00;;;;;;;21.43;62.25;98166.66;1804089;77;21761;-62
2021/06/16 08:16:18;;;;;;;8.28;3.90;;;;;;;21.56;62.36;98168.69;1802405;77;20928;-64
2021/06/16 08:18:50;;;;;;;9.23;3.40;;;;;;;21.72;62.96;98167.48;1789366;79;20908;-63
2021/06/16 08:21:19;;;;;;;3.95;3.25;;;;;;;21.96;62.05;98170.52;1802094;78;21003;-64
2021/06/16 08:23:46;;;;;;;8.50;3.92;;;;;;;22.14;61.15;98173.01;1831152;78;20833;-63
2021/06/16 08:26:14;;;;;;;8.03;3.80;;;;;;;22.22;60.10;98169.84;1838706;78;21102;-65
2021/06/16 08:28:41;;;;;;;7.33;4.00;;;;;;;22.27;59.69;98162.73;1838276;77;20999;-62
2021/06/16 08:31:08;;;;;;;9.05;3.47;;;;;;;22.31;60.42;98170.39;1815848;77;20935;-63
2021/06/16 08:33:40;;;;;;;7.12;3.62;;;;;;;22.31;60.72;98169.03;1812733;78;21058;-64
2021/06/16 08:36:05;;;;;;;5.35;3.20;;;;;;;22.33;59.25;98169.45;1819575;78;21058;-64
2021/06/16 08:38:40;;;;;;;6.70;3.10;;;;;;;22.37;59.17;98165.66;1810094;77;21670;-63
2021/06/16 08:41:14;;;;;;;6.72;3.15;;;;;;;22.44;58.10;98171.81;1778820;80;21029;-65
2021/06/16 08:43:43;;;;;;;9.73;2.98;;;;;;;22.55;57.52;98175.52;1779092;78;20958;-65
2021/06/16 08:46:14;;;;;;;6.10;2.83;;;;;;;22.68;56.54;98174.80;1779090;80;21004;-65
2021/06/16 08:48:42;;;;;;;9.35;3.12;;;;;;;22.83;56.74;98182.84;1780251;80;21583;-64
2021/06/16 08:51:16;;;;;;;9.08;3.58;;;;;;;22.95;55.67;98181.28;1780262;80;21115;-63
2021/06/16 08:53:40;;;;;;;10.18;3.45;;;;;;;22.96;55.57;98176.02;1779014;80;20981;-65
2021/06/16 08:56:08;;;;;;;10.75;3.70;;;;;;;22.97;55.57;98187.16;1780347;80;21049;-64
2021/06/16 08:58:36;;;;;;;7.70;2.80;;;;;;;23.00;55.05;98189.17;1780230;80;20926;-63
2021/06/16 09:01:06;;;;;;;5.65;2.98;;;;;;;;;;1780331;80;21454;-61
2021/06/16 09:03:35;;;;;;;5.87;3.02;;;;;;;23.13;54.70;98187.80;1779968;80;21115;-63
2021/06/16 09:06:12;;;;;;;9.20;3.05;;;;;;;23.10;54.46;98192.63;1780228;80;20891;-63
2021/06/16 09:09:06;;;;;;;7.67;2.85;;;;;;;23.05;53.79;98190.23;1791227;78;20895;-69
2021/06/16 09:11:45;;;;;;;8.90;3.10;;;;;;;23.01;54.17;98188.60;1821813;77;20964;-63
2021/06/16 09:14:19;;;;;;;6.05;2.67;;;;;;;23.06;54.71;98194.52;1821709;78;20963;-63
2021/06/16 09:16:47;;;;;;;8.68;2.72;;;;;;;23.12;53.85;98198.53;1798484;77;21112;-64
2021/06/16 09:19:23;;;;;;;4.92;2.60;;;;;;;23.10;54.07;98196.72;1783533;80;20876;-65
2021/06/16 09:22:04;;;;;;;6.15;2.72;;;;;;;;;;1783509;80;20892;-65
2021/06/16 09:24:51;;;;;;;6.55;2.60;;;;;;;23.08;54.23;98204.50;1781474;80;20942;-65
2021/06/16 09:27:45;;;;;;;3.83;2.42;;;;;;;23.15;54.35;98197.78;1783339;79;21017;-64
2021/06/16 09:30:26;;;;;;;5.03;2.65;;;;;;;23.31;54.67;98199.58;1780001;80;21118;-62
2021/06/16 09:32:58;;;;;;;4.40;2.80;;;;;;;23.52;54.16;98194.45;1785933;78;20979;-64
2021/06/16 09:35:29;;;;;;;4.00;2.58;;;;;;;23.66;52.61;98193.27;1806676;79;21296;-61
2021/06/16 09:38:03;;;;;;;9.63;3.30;;;;;;;23.75;52.56;98197.30;1809180;79;21006;-64
2021/06/16 09:40:42;;;;;;;5.40;2.60;;;;;;;23.88;52.40;98199.23;1762739;80;20955;-64
2021/06/16 09:43:14;;;;;;;3.50;2.50;;;;;;;24.10;52.31;98198.33;1762219;79;21156;-66
2021/06/16 09:45:44;;;;;;;4.60;2.35;;;;;;;24.28;50.95;98192.47;1755781;80;20971;-65
2021/06/16 09:48:23;;;;;;;4.45;2.50;;;;;;;24.44;49.74;98186.20;1786235;79;20996;-65
2021/06/16 09:50:53;;;;;;;6.42;2.55;;;;;;;24.56;49.43;98188.45;1788991;80;21540;-64
2021/06/16 09:53:20;;;;;;;5.00;2.47;;;;;;;24.57;49.08;98201.76;1789466;80;20988;-64
2021/06/16 09:55:47;;;;;;;5.97;2.58;;;;;;;24.58;49.23;98195.70;1789114;80;21755;-67
2021/06/16 09:58:17;;;;;;;3.65;2.37;;;;;;;24.59;49.78;98202.77;1761353;80;20901;-68
2021/06/16 10:00:49;;;;;;;5.42;2.40;;;;;;;24.52;48.13;98202.70;1726740;80;20931;-65
2021/06/16 10:03:21;;;;;;;3.42;2.27;;;;;;;24.32;48.73;98204.27;1734987;82;20979;-62
2021/06/16 10:06:14;;;;;;;2.83;2.42;;;;;;;24.13;49.80;98211.27;1744362;81;21578;-64
2021/06/16 10:08:47;;;;;;;5.60;3.00;;;;;;;23.95;49.92;98210.25;1710300;80;21076;-64
2021/06/16 10:11:18;;;;;;;4.95;3.00;;;;;;;23.76;49.88;98213.14;1790998;80;21503;-63
2021/06/16 10:13:45;;;;;;;4.00;2.35;;;;;;;23.62;50.55;98210.22;1851266;77;20860;-63
2021/06/16 10:16:12;;;;;;;8.80;3.00;;;;;;;23.52;50.00;98202.08;1852050;77;21486;-61
2021/06/16 10:18:41;;;;;;;7.03;2.80;;;;;;;23.64;51.24;98198.33;1851940;77;20958;-65
2021/06/16 10:21:11;;;;;;;4.05;2.62;;;;;;;23.94;51.57;98204.56;1828999;77;21111;-63
2021/06/16 10:23:47;;;;;;;4.55;2.90;;;;;;;24.13;50.48;98203.06;1809076;79;21410;-63
2021/06/16 10:26:26;;;;;;;6.22;3.08;;;;;;;24.07;51.95;98211.38;1809017;79;20922;-63
2021/06/16 10:28:57;;;;;;;7.00;3.37;;;;;;;23.74;53.16;98210.75;1814034;79;21048;-64
2021/06/16 10:31:24;;;;;;;8.35;3.12;;;;;;;23.45;54.55;98213.48;1821007;77;20991;-64
2021/06/16 10:33:57;;;;;;;6.60;3.40;;;;;;;23.23;55.48;98211.55;1814265;77;21183;-62
2021/06/16 10:36:24;;;;;;;8.18;3.22;;;;;;;23.01;56.50;98204.39;1824322;78;20868;-64
2021/06/16 10:39:04;;;;;;;8.28;3.15;;;;;;;22.82;57.17;98208.56;1831702;77;20994;-63
2021/06/16 10:41:54;;;;;;;8.40;3.60;;;;;;;22.67;57.83;98215.52;1852678;77;20927;-65
2021/06/16 10:44:24;;;;;;;6.37;3.65;;;;;;;22.51;58.16;98218.91;1852827;77;21426;-63
2021/06/16 10:47:00;;;;;;;4.92;3.00;;;;;;;22.31;58.59;98210.75;1852280;77;21204;-66
2021/06/16 10:49:55;;;;;;;4.85;3.30;;;;;;;22.21;59.18;98210.56;1827136;77;21517;-65
2021/06/16 10:52:25;;;;;;;11.08;3.92;;;;;;;22.14;59.67;98209.06;1785117;78;21457;-64
2021/06/16 10:54:59;;;;;;;9.15;3.50;;;;;;;22.10;60.09;98206.82;1785654;80;20915;-67
2021/06/16 10:57:26;;;;;;;4.93;3.43;;;;;;;22.09;60.13;98208.75;1785505;80;20871;-67
2021/06/16 11:00:05;;;;;;;7.53;3.55;;;;;;;22.09;60.21;98216.94;1785267;80;21173;-64
2021/06/16 11:02:42;;;;;;;8.70;3.90;;;;;;;22.10;59.86;98212.28;1783746;80;21077;-61
2021/06/16 11:05:22;;;;;;;5.10;3.40;;;;;;;22.11;59.79;98212.50;1783016;80;21671;-65
2021/06/16 11:07:50;;;;;;;7.87;3.30;;;;;;;22.12;59.62;98218.16;1784131;80;21053;-63
2021/06/16 11:10:17;;;;;;;7.97;3.47;;;;;;;22.09;59.76;98218.90;1783873;80;21038;-65
2021/06/16 11:12:46;;;;;;;6.03;3.45;;;;;;;22.08;59.46;98215.95;1784163;80;21112;-63
2021/06/16 11:15:34;;;;;;;6.72;3.40;;;;;;;22.04;59.46;98219.19;1784006;80;20954;-63
2021/06/16 11:18:07;;;;;;;8.93;3.42;;;;;;;21.98;59.71;98216.52;1784016;80;20943;-60
2021/06/16 11:20:39;;;;;;;6.20;3.40;;;;;;;21.95;59.80;98213.16;1748809;80;21694;-63
2021/06/16 11:23:06;;;;;;;7.20;3.42;;;;;;;21.92;59.92;98211.14;1794475;79;21065;-63
2021/06/16 11:25:40;;;;;;;7.17;3.33;;;;;;;21.87;59.74;98214.95;1767586;79;21125;-67
2021/06/16 11:28:20;;;;;;;5.77;3.60;;;;;;;21.86;59.86;98215.31;1745099;82;20986;-62
2021/06/16 11:31:05;;;;;;;8.75;3.27;;;;;;;21.85;60.33;98214.52;1787776;80;21439;-64
2021/06/16 11:33:37;;;;;;;13.38;3.65;;;;;;;21.81;60.33;98215.77;1788181;79;21440;-62
2021/06/16 11:36:19;;;;;;;9.30;3.45;;;;;;;21.78;60.73;98219.80;1787958;79;21352;-62
2021/06/16 11:38:59;;;;;;;4.95;3.40;;;;;;;21.74;60.55;98210.16;1787951;80;21110;-62
2021/06/16 11:41:27;;;;;;;10.13;4.05;;;;;;;21.75;60.75;98215.05;1787854;80;20915;-64
2021/06/16 11:44:09;;;;;;;9.78;4.17;;;;;;;21.76;58.98;98213.31;1788399;80;21411;-63
2021/06/16 11:46:41;;;;;;;10.13;3.83;;;;;;;21.77;58.01;98210.82;1756438;81;20899;-63
2021/06/16 11:49:22;;;;;;;12.10;4.42;;;;;;;21.80;57.79;98207.38;1768791;80;21021;-61
2021/06/16 11:51:59;;;;;;;12.33;4.85;;;;;;;21.87;57.40;98207.33;1756525;81;21062;-63
2021/06/16 11:54:36;;;;;;;17.02;4.58;;;;;;;21.94;56.33;98208.27;1756447;81;20922;-63
2021/06/16 11:57:09;;;;;;;11.33;3.75;;;;;;;22.00;55.06;98203.33;1756415;81;20875;-63
2021/06/16 11:59:45;;;;;;;13.58;3.55;;;;;;;22.07;51.85;98204.84;1756584;81;21422;-63
2021/06/16 12:02:20;;;;;;;8.80;3.08;;;;;;;22.14;51.50;98203.61;1783431;80;20887;-63
2021/06/16 12:05:05;;;;;;;5.08;2.83;;;;;;;22.18;50.71;98205.25;1786892;80;21118;-64
2021/06/16 12:07:39;;;;;;;6.42;2.70;;;;;;;22.22;48.55;98204.73;1785163;80;21009;-62
2021/06/16 12:10:15;;;;;;;8.45;2.60;;;;;;;22.25;48.74;98195.05;1786390;80;21463;-65
2021/06/16 14:29:13;;;;;;;5.70;3.35;;;;;;;25.48;46.64;98138.70;1890709;76;22628;-64
2021/06/16 14:31:40;;;;;;;4.42;3.47;;;;;;;25.72;45.84;98143.49;1861477;77;20923;-65
2021/06/16 14:34:07;;;;;;;6.75;4.20;;;;;;;26.18;45.30;98135.45;1861528;77;21111;-64
2021/06/16 14:36:35;;;;;;;5.58;3.52;;;;;;;26.67;44.92;98139.41;1848949;77;20908;-64
2021/06/16 14:39:04;;;;;;;9.40;3.95;;;;;;;26.82;44.15;98143.19;1847737;77;21033;-64
2021/06/16 14:41:31;;;;;;;6.40;3.72;;;;;;;26.69;44.11;98142.55;1841335;77;21394;-64
2021/06/16 14:43:58;;;;;;;5.67;3.77;;;;;;;26.31;44.37;98146.82;1861563;77;20962;-67
2021/06/16 14:46:25;;;;;;;7.78;4.10;;;;;;;25.88;45.44;98147.88;1861557;77;21463;-65
2021/06/16 14:48:52;;;;;;;6.03;3.98;;;;;;;25.50;46.35;98147.33;1861575;77;21371;-63
2021/06/16 14:51:19;;;;;;;7.72;3.98;;;;;;;25.12;46.96;98149.22;1861539;77;20828;-65
2021/06/16 14:53:47;;;;;;;5.87;3.50;;;;;;;24.77;47.86;98147.02;1861451;77;20872;-63
2021/06/16 14:56:14;;;;;;;7.00;3.40;;;;;;;24.35;48.76;98159.69;1847894;77;20919;-63
2021/06/16 14:58:41;;;;;;;4.53;3.42;;;;;;;24.35;48.76;98159.69;1847923;77;21102;-63
2021/06/16 15:01:08;;;;;;;4.33;3.27;;;;;;;24.17;49.20;98153.27;1847623;77;20916;-69
2021/06/16 15:03:34;;;;;;;5.17;3.70;;;;;;;23.98;49.72;98154.78;1847782;77;20923;-68
2021/06/16 15:06:01;;;;;;;7.05;4.17;;;;;;;23.81;50.37;98153.41;1847780;77;20880;-67
2021/06/16 15:08:28;;;;;;;7.20;3.90;;;;;;;23.72;51.08;98155.65;1847794;77;20959;-64
2021/06/16 15:10:55;;;;;;;9.80;4.05;;;;;;;23.62;51.18;98152.80;1847663;77;21024;-65
2021/06/16 15:13:22;;;;;;;6.15;3.80;;;;;;;23.50;51.57;98162.02;1847717;77;20821;-66
2021/06/16 15:15:51;;;;;;;7.25;3.83;;;;;;;23.41;52.04;98162.85;1847752;77;20869;-66
2021/06/16 15:18:17;;;;;;;5.05;3.40;;;;;;;23.32;52.62;98156.08;1847739;77;20920;-63
2021/06/16 15:20:46;;;;;;;15.55;4.12;;;;;;;23.22;52.82;98158.08;1847789;77;20900;-63
2021/06/16 15:23:13;;;;;;;7.45;3.80;;;;;;;23.13;53.27;98159.11;1848026;77;21041;-69
2021/06/16 15:25:40;;;;;;;8.20;3.98;;;;;;;23.08;53.62;98155.93;1847627;77;20884;-63
2021/06/16 15:28:07;;;;;;;6.03;3.87;;;;;;;23.08;53.98;98162.76;1842800;77;20901;-64
2021/06/16 15:30:35;;;;;;;7.97;4.00;;;;;;;23.00;54.63;98164.59;1836316;78;21415;-66
2021/06/16 15:33:04;;;;;;;8.40;3.80;;;;;;;22.90;54.74;98166.57;1836183;78;20861;-65
2021/06/16 15:35:31;;;;;;;6.83;4.10;;;;;;;22.80;55.22;98172.64;1836525;78;21085;-62
2021/06/16 15:38:02;;;;;;;7.35;4.40;;;;;;;22.77;55.64;98173.39;1836184;78;20916;-63
2021/06/16 15:40:27;;;;;;;6.90;3.67;;;;;;;22.78;55.76;98170.86;1835415;77;20963;-67
2021/06/16 15:42:54;;;;;;;7.08;4.30;;;;;;;22.79;55.68;98165.63;1835515;78;20857;-65
2021/06/16 15:45:21;;;;;;;6.80;3.98;;;;;;;22.83;55.38;98166.45;1835702;78;20953;-62
2021/06/16 15:47:48;;;;;;;6.90;3.95;;;;;;;22.85;55.61;98173.70;1835648;78;21008;-63
2021/06/16 15:50:16;;;;;;;5.40;3.70;;;;;;;22.81;55.72;98170.14;1835363;77;21447;-65
2021/06/16 15:52:43;;;;;;;6.55;3.58;;;;;;;22.76;55.64;98171.80;1819198;78;21336;-67
2021/06/16 15:55:12;;;;;;;4.33;3.08;;;;;;;22.73;55.66;98173.89;1840327;78;20893;-64
2021/06/16 15:57:39;;;;;;;7.58;3.70;;;;;;;22.66;55.92;98173.01;1838822;77;21473;-66
2021/06/16 16:00:07;;;;;;;7.72;3.58;;;;;;;22.59;56.47;98174.98;1844245;77;21087;-62
2021/06/16 16:02:35;;;;;;;8.28;3.87;;;;;;;22.58;56.54;98178.09;1841750;77;21458;-66
2021/06/16 16:05:02;;;;;;;6.65;3.83;;;;;;;22.56;56.94;98178.47;1839447;77;20837;-66
2021/06/16 16:07:29;;;;;;;6.92;3.87;;;;;;;22.57;57.10;98175.93;1843111;77;20967;-63
2021/06/16 16:09:58;;;;;;;5.78;3.85;;;;;;;22.66;57.43;98179.83;1838901;77;20976;-60
2021/06/16 16:12:29;;;;;;;5.72;3.83;;;;;;;22.75;57.29;98177.04;1837443;77;21045;-64
2021/06/16 16:14:54;;;;;;;6.33;3.60;;;;;;;22.84;57.23;98172.71;1836138;77;20908;-64
2021/06/16 16:17:20;;;;;;;6.58;3.87;;;;;;;22.93;56.73;98176.77;1849510;77;21348;-62
2021/06/16 16:19:47;;;;;;;9.70;3.55;;;;;;;23.02;56.49;98169.11;1849187;77;20959;-64
2021/06/16 16:22:15;;;;;;;7.45;3.70;;;;;;;23.11;56.39;98183.28;1849661;77;21371;-64
2021/06/16 16:24:42;;;;;;;7.20;3.22;;;;;;;23.22;55.88;98178.56;1849292;77;21113;-67
2021/06/16 16:27:09;;;;;;;6.53;3.55;;;;;;;23.27;55.40;98176.28;1849096;77;20899;-64
2021/06/16 16:29:36;;;;;;;9.20;3.85;;;;;;;23.32;55.37;98186.14;1849237;77;20947;-63
2021/06/16 16:32:04;;;;;;;6.05;3.70;;;;;;;23.30;55.25;98183.75;1849154;77;20908;-67
2021/06/16 16:34:31;;;;;;;4.42;3.62;;;;;;;23.31;54.80;98185.34;1849733;77;20937;-68
2021/06/16 16:36:57;;;;;;;6.87;3.72;;;;;;;23.32;54.85;98188.88;1849768;77;21765;-65
2021/06/16 16:39:24;;;;;;;6.25;3.90;;;;;;;23.28;55.22;98185.28;1849231;77;20943;-63
2021/06/16 16:41:51;;;;;;;8.28;4.37;;;;;;;23.24;54.55;98183.08;1849203;77;20880;-68
2021/06/16 16:44:18;;;;;;;9.43;3.50;;;;;;;23.21;54.10;98185.17;1849175;77;20916;-66
2021/06/16 16:46:45;;;;;;;5.87;3.77;;;;;;;23.18;54.26;98183.17;1849516;77;20959;-65
2021/06/16 16:49:12;;;;;;;6.05;4.10;;;;;;;23.11;54.24;98183.86;1849177;77;21117;-63
2021/06/16 16:51:38;;;;;;;5.40;3.87;;;;;;;;;;1849388;77;20920;-65
